Time;durP1;ratioP1;P1;durP2;ratioP2;P2;SDS_P1;SDS_P2;PMS_P1;PMS_P2;Temp;Humidity;BMP_temperature;BMP_pressure;BME280_temperature;BME280_humidity;BME280_pressure;Samples;Min_cycle;Max_cycle;Signal;HPM_P1;HPM_P2
2023/07/14 07:01:22;;;;;;;0.10;0.10;;;20.10;99.90;24.20;101394.00;;;;6253351;22;1396606;-70
2023/07/14 07:03:48;;;;;;;0.10;0.10;;;20.40;99.90;23.70;101452.00;;;;6282400;22;20179;-70
2023/07/14 07:06:17;;;;;;;0.45;0.45;;;20.50;99.90;22.50;101424.00;;;;6282570;22;20156;-70
2023/07/14 07:08:45;;;;;;;0.10;0.10;;;19.90;99.90;23.10;101367.00;;;;6281940;22;20156;-70
2023/07/14 07:11:13;;;;;;;0.95;0.40;;;19.80;99.90;23.40;101432.00;;;;6257122;22;20228;-69
2023/07/14 07:13:42;;;;;;;0.13;0.13;;;20.10;99.90;23.60;101446.00;;;;6282177;22;20247;-70
2023/07/14 07:16:08;;;;;;;1.25;0.88;;;20.40;99.90;23.40;101444.00;;;;6282234;22;20249;-70
2023/07/14 07:18:40;;;;;;;0.10;0.10;;;20.50;99.90;24.00;101440.00;;;;6256899;22;20216;-70
2023/07/14 07:21:12;;;;;;;0.20;0.20;;;20.40;99.90;22.90;101449.00;;;;6309199;22;20231;-70
2023/07/14 07:23:46;;;;;;;0.10;0.10;;;20.10;99.90;23.80;101426.00;;;;6257206;22;20239;-70
2023/07/14 07:26:12;;;;;;;0.10;0.10;;;20.20;99.90;24.30;101466.00;;;;6281900;22;20159;-70
2023/07/14 07:28:38;;;;;;;0.10;0.10;;;20.50;99.90;23.60;101421.00;;;;6282272;22;20607;-70
2023/07/14 07:31:12;;;;;;;0.10;0.10;;;20.50;99.90;22.90;101424.00;;;;6308981;22;20164;-70
2023/07/14 07:33:42;;;;;;;0.10;0.10;;;19.90;99.90;23.60;101425.00;;;;6257707;22;20180;-70
2023/07/14 07:36:17;;;;;;;0.65;0.57;;;20.20;99.90;22.90;101416.00;;;;6282322;22;20137;-70
2023/07/14 07:38:48;;;;;;;0.10;0.10;;;19.80;99.90;24.00;101421.00;;;;6309167;22;20144;-70
2023/07/14 07:41:20;;;;;;;0.20;0.20;;;20.20;99.90;25.50;101384.00;;;;6256399;22;20164;-70
2023/07/14 07:43:46;;;;;;;0.10;0.10;;;20.90;99.90;26.40;101455.00;;;;6309453;22;20222;-70
2023/07/14 07:46:12;;;;;;;0.10;0.10;;;21.80;99.90;24.70;101466.00;;;;6281740;22;20136;-70
2023/07/14 07:48:42;;;;;;;0.10;0.10;;;21.70;99.90;24.70;101444.00;;;;6281743;22;20142;-70
2023/07/14 07:51:08;;;;;;;0.10;0.10;;;21.40;99.90;24.30;101444.00;;;;6281862;22;20573;-70
2023/07/14 07:53:34;;;;;;;0.10;0.10;;;21.40;99.90;25.50;101443.00;;;;6281433;22;20688;-70
2023/07/14 07:56:01;;;;;;;0.10;0.10;;;21.60;99.90;26.60;101447.00;;;;6281697;22;20156;-70
2023/07/14 07:58:32;;;;;;;0.10;0.10;;;22.30;99.90;28.40;101436.00;;;;6256453;22;20490;-68
2023/07/14 08:01:04;;;;;;;0.10;0.10;;;23.50;99.90;27.30;101456.00;;;;6233347;22;20251;-70
2023/07/14 08:03:33;;;;;;;0.20;0.20;;;23.80;99.90;27.00;101444.00;;;;6250982;22;20145;-68
2023/07/14 08:06:02;;;;;;;0.65;0.65;;;23.90;99.90;27.10;101459.00;;;;6251340;22;20169;-69
2023/07/14 08:08:29;;;;;;;0.20;0.20;;;23.70;99.90;27.60;101400.00;;;;6251169;22;20195;-69
2023/07/14 08:10:58;;;;;;;0.10;0.10;;;23.90;99.90;28.80;101412.00;;;;6250971;22;20608;-68
2023/07/14 08:13:28;;;;;;;0.10;0.10;;;24.50;99.90;26.70;101407.00;;;;6225768;22;20176;-70
2023/07/14 08:15:56;;;;;;;0.10;0.10;;;23.70;99.90;29.00;101385.00;;;;6277614;22;20600;-68
2023/07/14 08:18:23;;;;;;;0.10;0.10;;;24.10;99.90;30.30;101371.00;;;;6225702;22;20172;-68
2023/07/14 08:20:53;;;;;;;0.10;0.10;;;25.20;99.90;26.90;101430.00;;;;6250647;22;20157;-69
2023/07/14 08:23:21;;;;;;;0.10;0.10;;;24.40;99.90;27.10;101426.00;;;;6278104;22;20657;-68
2023/07/14 08:26:00;;;;;;;0.85;0.75;;;23.70;99.90;27.40;101417.00;;;;6225356;22;20153;-68
2023/07/14 08:28:27;;;;;;;0.10;0.10;;;23.70;99.90;26.50;101437.00;;;;6278071;22;20210;-68
2023/07/14 08:30:58;;;;;;;0.10;0.10;;;23.30;99.90;26.80;101435.00;;;;6250491;22;20593;-68
2023/07/14 08:33:25;;;;;;;0.10;0.10;;;23.20;99.90;27.00;101433.00;;;;6250972;22;20165;-70
2023/07/14 08:36:00;;;;;;;1.02;0.55;;;23.20;99.90;27.90;101421.00;;;;6250547;22;20212;-68
2023/07/14 08:38:30;;;;;;;0.17;0.17;;;23.70;99.90;27.20;101437.00;;;;6251947;22;20176;-69
2023/07/14 08:41:09;;;;;;;0.10;0.10;;;23.80;99.90;27.50;101420.00;;;;6250638;22;20604;-68
2023/07/14 08:43:59;;;;;;;0.10;0.10;;;23.80;99.90;27.00;101424.00;;;;6277575;22;20482;-70
2023/07/14 08:46:53;;;;;;;0.20;0.20;;;23.40;99.90;28.00;101410.00;;;;6225073;22;20248;-68
2023/07/14 08:49:27;;;;;;;0.57;0.57;;;24.00;99.90;27.00;101437.00;;;;6277798;22;20160;-69
2023/07/14 08:52:00;;;;;;;0.52;0.30;;;23.70;99.90;27.30;101430.00;;;;6250637;22;20196;-70
2023/07/14 08:54:40;;;;;;;0.30;0.30;;;23.50;99.90;25.90;101443.00;;;;6250830;22;20189;-70
2023/07/14 08:57:19;;;;;;;0.10;0.10;;;23.00;99.90;26.20;101440.00;;;;6250648;22;20145;-70
2023/07/14 08:59:54;;;;;;;0.22;0.22;;;22.90;99.90;25.90;101444.00;;;;6232973;22;20597;-70
2023/07/14 09:02:37;;;;;;;0.10;0.10;;;22.80;99.90;26.60;101427.00;;;;6255548;22;20162;-70
2023/07/14 09:05:26;;;;;;;2.25;1.10;;;23.00;99.90;28.10;101402.00;;;;6255373;22;20530;-68
2023/07/14 09:07:52;;;;;;;0.45;0.43;;;24.10;99.90;28.20;101404.00;;;;6281051;22;20148;-68
2023/07/14 09:10:28;;;;;;;0.10;0.10;;;24.60;99.90;29.00;101393.00;;;;6255585;22;20164;-67
2023/07/14 09:13:11;;;;;;;0.60;0.40;;;24.90;99.90;29.00;101387.00;;;;6280806;22;20187;-67
2023/07/14 09:15:40;;;;;;;0.63;0.45;;;25.40;99.90;28.30;101361.00;;;;6306448;22;20182;-69
2023/07/14 09:19:10;;;;;;;0.10;0.10;;;25.00;99.90;28.80;101385.00;;;;6254198;22;20155;-67
2023/07/14 09:21:53;;;;;;;0.10;0.10;;;25.00;99.90;28.70;101383.00;;;;6297510;22;20209;-67
2023/07/14 09:24:22;;;;;;;0.30;0.30;;;24.80;99.90;27.50;101401.00;;;;6281044;22;20189;-68
2023/07/14 09:27:00;;;;;;;0.20;0.20;;;24.50;99.90;28.30;101388.00;;;;6307810;22;20584;-68
2023/07/14 09:29:38;;;;;;;0.13;0.13;;;24.60;99.90;28.90;101376.00;;;;6281014;22;20202;-68
2023/07/14 09:32:17;;;;;;;0.57;0.57;;;24.60;99.90;28.80;101369.00;;;;6281229;22;20164;-68
2023/07/14 09:34:56;;;;;;;0.10;0.10;;;24.70;99.90;27.40;101396.00;;;;6280958;22;20571;-68
2023/07/14 09:37:37;;;;;;;0.10;0.10;;;24.00;99.90;27.40;101371.00;;;;6280705;22;20175;-68
2023/07/14 09:40:25;;;;;;;0.28;0.28;;;23.80;99.90;27.80;101383.00;;;;6280803;22;20145;-68
2023/07/14 09:43:00;;;;;;;0.30;0.30;;;23.80;99.90;27.80;101369.00;;;;6281007;22;20168;-68
2023/07/14 09:45:33;;;;;;;0.10;0.10;;;23.90;99.90;27.60;101371.00;;;;6280839;22;20755;-68
2023/07/14 09:48:21;;;;;;;2.00;0.52;;;23.90;99.90;27.60;101368.00;;;;6280578;22;20148;-68
2023/07/14 09:51:07;;;;;;;0.10;0.10;;;23.60;99.90;27.60;101364.00;;;;6308294;22;20595;-68
2023/07/14 09:53:37;;;;;;;0.20;0.20;;;23.80;99.90;27.00;101371.00;;;;6254906;22;20180;-68
2023/07/14 09:56:14;;;;;;;0.20;0.20;;;23.70;99.90;27.40;101361.00;;;;6280411;22;20220;-69
2023/07/14 09:58:53;;;;;;;0.20;0.20;;;23.60;99.90;27.80;101361.00;;;;6280798;22;20211;-68
2023/07/14 10:01:19;;;;;;;0.10;0.10;;;23.90;99.90;27.80;101345.00;;;;6253086;22;20165;-69
2023/07/14 10:03:54;;;;;;;0.30;0.30;;;24.00;99.90;27.60;101351.00;;;;6224325;22;20648;-68
2023/07/14 10:06:27;;;;;;;0.20;0.20;;;24.10;99.90;27.70;101347.00;;;;6276600;22;20153;-68
2023/07/14 10:08:59;;;;;;;0.10;0.10;;;23.90;99.90;28.70;101323.00;;;;6249803;22;20167;-69
2023/07/14 10:11:40;;;;;;;0.35;0.35;;;24.40;99.90;27.60;101295.00;;;;6249649;22;20531;-69
2023/07/14 10:14:36;;;;;;;0.10;0.10;;;24.40;99.90;27.80;101315.00;;;;6249690;22;20649;-69
2023/07/14 10:17:07;;;;;;;0.10;0.10;;;24.40;99.90;28.40;101311.00;;;;6249687;22;20582;-69
2023/07/14 10:19:43;;;;;;;1.55;1.48;;;24.50;99.90;28.30;101314.00;;;;6276426;22;20657;-69
2023/07/14 10:34:19;;;;;;;0.65;0.65;;;23.40;99.90;27.00;101308.00;;;;5056193;28;20553;-68
2023/07/14 10:36:46;;;;;;;0.10;0.10;;;23.90;99.90;27.50;101296.00;;;;5048293;28;20216;-68
2023/07/14 10:39:28;;;;;;;0.55;0.55;;;24.00;99.90;27.60;101308.00;;;;5055332;28;20248;-68
2023/07/14 10:41:56;;;;;;;0.10;0.10;;;24.20;99.90;28.00;101290.00;;;;5067786;28;20182;-68
2023/07/14 10:44:28;;;;;;;0.40;0.40;;;24.50;99.90;28.90;101280.00;;;;5064601;28;20284;-68
2023/07/14 10:47:03;;;;;;;0.10;0.10;;;24.90;99.90;28.80;101244.00;;;;5067241;28;20272;-68
2023/07/14 10:49:43;;;;;;;0.10;0.10;;;25.10;99.90;28.90;101266.00;;;;5049182;28;20173;-68
2023/07/14 10:52:37;;;;;;;0.30;0.30;;;25.50;99.90;27.90;101275.00;;;;5034033;28;20293;-68
2023/07/14 10:55:25;;;;;;;0.10;0.10;;;25.20;99.90;29.00;101229.00;;;;5052893;28;20261;-68
2023/07/14 10:58:09;;;;;;;0.30;0.30;;;25.50;99.90;28.80;101249.00;;;;5051653;28;20648;-68
2023/07/14 11:00:45;;;;;;;0.10;0.10;;;25.30;99.90;29.60;101230.00;;;;5060017;28;20185;-68
2023/07/14 11:03:29;;;;;;;0.10;0.10;;;25.40;99.90;29.60;101208.00;;;;5057210;28;20193;-68
2023/07/14 11:06:04;;;;;;;0.10;0.10;;;25.70;99.90;30.10;101206.00;;;;5060726;28;20182;-68
2023/07/14 11:08:34;;;;;;;0.10;0.10;;;26.20;99.90;29.60;101213.00;;;;5044763;28;20185;-69
2023/07/14 11:11:14;;;;;;;1.65;1.45;;;26.30;99.90;32.10;101146.00;;;;5048621;28;20190;-68
2023/07/14 11:14:07;;;;;;;0.28;0.28;;;27.00;99.90;31.50;101188.00;;;;5046615;28;20636;-68
2023/07/14 11:16:50;;;;;;;0.20;0.20;;;28.30;99.90;31.60;101168.00;;;;5046260;28;20205;-68
2023/07/14 11:19:31;;;;;;;0.10;0.10;;;28.10;99.90;31.40;101181.00;;;;5045414;28;20266;-68
2023/07/14 11:22:38;;;;;;;0.35;0.35;;;27.80;99.90;31.20;101188.00;;;;5060434;28;20561;-68
2023/07/14 11:25:34;;;;;;;0.28;0.28;;;27.60;99.90;30.40;101170.00;;;;5037781;28;20209;-68
2023/07/14 11:28:08;;;;;;;0.75;0.70;;;27.00;99.90;30.20;101211.00;;;;5037489;28;20601;-68
2023/07/14 11:30:39;;;;;;;0.50;0.50;;;27.00;99.90;29.90;101194.00;;;;5051880;28;20187;-68
2023/07/14 11:33:10;;;;;;;0.85;0.85;;;26.80;99.90;30.10;101206.00;;;;5048316;28;20249;-68
2023/07/14 11:35:50;;;;;;;0.30;0.30;;;26.70;99.90;30.20;101196.00;;;;5058606;28;20243;-68
2023/07/14 11:38:55;;;;;;;0.10;0.10;;;26.80;99.90;30.30;101190.00;;;;5056187;28;20182;-68
2023/07/14 11:41:21;;;;;;;0.10;0.10;;;26.60;99.90;30.70;101185.00;;;;5049954;28;20229;-68
2023/07/14 11:43:49;;;;;;;0.22;0.22;;;26.90;99.90;31.00;101178.00;;;;5044594;28;20237;-68
2023/07/14 11:46:22;;;;;;;0.20;0.20;;;27.10;99.90;30.70;101179.00;;;;5041328;28;20189;-68
2023/07/14 11:48:54;;;;;;;0.10;0.10;;;26.90;99.90;30.90;101182.00;;;;5032196;28;20183;-68
2023/07/14 11:51:46;;;;;;;0.22;0.22;;;26.90;99.90;30.80;101182.00;;;;5045547;28;20209;-68
2023/07/14 11:54:43;;;;;;;2.83;0.98;;;26.90;99.90;30.10;101200.00;;;;5028415;28;20191;-68
2023/07/14 11:57:21;;;;;;;0.47;0.40;;;26.60;99.90;29.80;101179.00;;;;5038126;28;20182;-68
2023/07/14 12:00:17;;;;;;;0.20;0.20;;;26.20;99.90;30.00;101194.00;;;;5028098;28;20201;-68
2023/07/14 12:02:57;;;;;;;0.10;0.10;;;26.10;99.90;30.60;101178.00;;;;5045009;28;20280;-68
2023/07/14 12:05:26;;;;;;;0.55;0.55;;;26.50;99.90;30.20;101179.00;;;;5054224;28;20190;-68
2023/07/14 12:08:04;;;;;;;0.30;0.30;;;26.60;99.90;29.90;101141.00;;;;5047137;28;20190;-68
2023/07/14 12:10:39;;;;;;;0.20;0.20;;;26.70;99.90;30.80;101149.00;;;;5041827;28;20183;-68
2023/07/14 12:13:24;;;;;;;0.60;0.43;;;26.90;99.90;29.90;101157.00;;;;5041796;28;20210;-68
2023/07/14 12:15:56;;;;;;;0.40;0.40;;;26.90;99.90;29.30;101164.00;;;;5039794;28;20594;-68
2023/07/14 12:18:37;;;;;;;0.70;0.68;;;26.30;99.90;29.90;101157.00;;;;5035834;28;20217;-68
2023/07/14 12:21:15;;;;;;;0.20;0.20;;;26.30;99.90;29.90;101132.00;;;;5068173;28;20189;-68
2023/07/14 12:24:17;;;;;;;0.10;0.10;;;26.40;99.90;29.60;101164.00;;;;5041880;28;20182;-68
2023/07/14 12:27:08;;;;;;;0.10;0.10;;;26.10;99.90;30.70;101119.00;;;;5016840;28;20186;-68
2023/07/14 12:29:34;;;;;;;0.10;0.10;;;26.60;99.90;31.80;101085.00;;;;5043957;28;20201;-68
2023/07/14 12:32:02;;;;;;;0.28;0.28;;;27.10;99.90;32.40;101081.00;;;;5027118;28;20236;-68
2023/07/14 12:34:31;;;;;;;0.80;0.50;;;27.90;99.90;31.30;101059.00;;;;5032551;28;20187;-68
2023/07/14 12:37:00;;;;;;;0.15;0.15;;;27.80;99.90;31.10;101080.00;;;;5041544;28;20628;-68
2023/07/14 12:39:28;;;;;;;0.25;0.20;;;27.60;99.90;31.20;101079.00;;;;5021556;28;20179;-68
2023/07/14 12:41:59;;;;;;;0.20;0.20;;;27.40;99.90;30.50;101076.00;;;;5036095;28;20718;-68
2023/07/14 12:44:33;;;;;;;0.10;0.10;;;27.10;99.90;31.20;101060.00;;;;5021843;28;20182;-68
2023/07/14 12:47:02;;;;;;;0.63;0.63;;;27.20;99.90;30.10;101067.00;;;;5033218;28;20240;-68
2023/07/14 12:49:37;;;;;;;2.53;0.55;;;26.90;99.90;29.90;101085.00;;;;5047062;28;20752;-68
2023/07/14 12:52:45;;;;;;;0.10;0.10;;;26.70;99.90;30.40;101062.00;;;;5060297;28;20272;-68
2023/07/14 12:55:16;;;;;;;0.32;0.32;;;26.40;99.90;29.80;101050.00;;;;5028548;28;20618;-68
2023/07/14 12:57:54;;;;;;;0.20;0.20;;;26.40;99.90;29.90;101061.00;;;;5013364;28;20285;-68
2023/07/14 13:00:32;;;;;;;0.75;0.75;;;26.30;99.90;29.40;101062.00;;;;5024039;28;20204;-68
2023/07/14 13:03:03;;;;;;;0.38;0.38;;;26.20;99.90;29.20;101067.00;;;;5052353;28;20190;-68
2023/07/14 13:05:38;;;;;;;0.30;0.30;;;25.90;99.90;29.80;101050.00;;;;5020269;28;20669;-68
2023/07/14 13:08:17;;;;;;;0.80;0.30;;;25.90;99.90;29.40;101057.00;;;;5043796;28;20181;-68
2023/07/14 13:10:43;;;;;;;1.52;0.30;;;26.00;99.90;29.80;101007.00;;;;5031463;28;20199;-68
2023/07/14 13:13:36;;;;;;;0.10;0.10;;;26.10;99.90;29.80;101034.00;;;;5052319;28;20642;-68
2023/07/14 13:16:04;;;;;;;0.10;0.10;;;26.20;99.90;30.00;101014.00;;;;5050866;28;20304;-68
2023/07/14 13:18:34;;;;;;;0.22;0.22;;;26.20;99.90;30.10;101018.00;;;;5038991;28;20178;-67
2023/07/14 13:21:44;;;;;;;1.05;0.50;;;26.50;99.90;29.80;101026.00;;;;5036361;28;20179;-66
2023/07/14 13:24:22;;;;;;;0.80;0.80;;;26.40;99.90;30.20;101003.00;;;;5034027;28;20277;-68
2023/07/14 13:26:59;;;;;;;0.43;0.43;;;26.40;99.90;30.60;100992.00;;;;5046280;28;20185;-67
2023/07/14 13:29:37;;;;;;;0.52;0.52;;;26.60;99.90;30.70;100984.00;;;;5066322;28;20186;-67
2023/07/14 13:32:19;;;;;;;0.10;0.10;;;26.70;99.90;30.60;100982.00;;;;5032137;28;20252;-68
2023/07/14 13:34:56;;;;;;;0.20;0.20;;;26.70;99.90;29.70;100976.00;;;;5034859;28;20182;-68
2023/07/14 13:37:30;;;;;;;0.40;0.40;;;26.50;99.90;29.50;100987.00;;;;5049724;28;20678;-67
2023/07/14 13:40:18;;;;;;;0.30;0.30;;;26.20;99.90;29.60;100983.00;;;;5041163;28;20182;-66
2023/07/14 13:42:52;;;;;;;0.35;0.35;;;26.20;99.90;30.10;100967.00;;;;5040005;28;20213;-67
2023/07/14 13:46:15;;;;;;;5.32;5.00;;;26.30;99.90;29.70;100971.00;;;;5043088;28;20639;-67
2023/07/14 13:48:45;;;;;;;1.05;0.75;;;26.50;99.90;30.20;100934.00;;;;5034174;28;20269;-68
2023/07/14 13:51:25;;;;;;;0.32;0.20;;;26.60;99.90;29.60;100956.00;;;;5041078;28;20182;-66
2023/07/14 13:53:52;;;;;;;0.52;0.32;;;26.40;99.90;29.10;100962.00;;;;5012060;28;20188;-66
2023/07/14 13:56:21;;;;;;;0.55;0.55;;;26.20;99.90;30.10;100944.00;;;;5049410;28;20232;-66
2023/07/14 13:58:48;;;;;;;2.50;1.10;;;26.40;99.90;29.50;100918.00;;;;5031882;28;20732;-66
2023/07/14 14:01:33;;;;;;;0.40;0.40;;;26.20;99.90;30.20;100934.00;;;;5030959;28;20186;-66
2023/07/14 14:04:14;;;;;;;1.00;0.90;;;26.20;99.90;29.60;100930.00;;;;5037809;28;20555;-66
2023/07/14 14:06:41;;;;;;;0.10;0.10;;;26.20;99.90;29.90;100927.00;;;;5030905;28;20189;-66
2023/07/14 14:09:23;;;;;;;1.05;1.05;;;26.30;99.90;29.60;100919.00;;;;5025441;28;20261;-66
2023/07/14 14:11:50;;;;;;;0.65;0.65;;;26.20;99.90;29.90;100918.00;;;;5033046;28;20198;-66
2023/07/14 14:14:21;;;;;;;0.43;0.43;;;26.20;99.90;30.30;100903.00;;;;5039420;28;20277;-67
2023/07/14 14:16:52;;;;;;;0.10;0.10;;;26.50;99.90;30.00;100901.00;;;;5018029;28;20187;-67
2023/07/14 14:19:41;;;;;;;0.15;0.15;;;26.60;99.90;30.70;100866.00;;;;5044067;28;20194;-66
2023/07/14 14:22:21;;;;;;;0.57;0.57;;;26.80;99.90;30.80;100833.00;;;;5023607;28;20553;-66
2023/07/14 14:25:13;;;;;;;0.30;0.30;;;27.00;99.90;30.30;100887.00;;;;5035898;28;20198;-66
2023/07/14 14:28:02;;;;;;;0.35;0.35;;;26.80;99.90;29.50;100863.00;;;;5031880;28;20183;-66
2023/07/14 14:31:02;;;;;;;0.30;0.30;;;26.40;99.90;29.70;100902.00;;;;5039367;28;20174;-66
2023/07/14 14:33:43;;;;;;;1.02;0.95;;;26.40;99.90;29.20;100899.00;;;;5041634;28;20213;-66
2023/07/14 14:36:13;;;;;;;1.35;0.82;;;26.10;99.90;28.70;100911.00;;;;5045564;28;20188;-66
2023/07/14 14:39:07;;;;;;;0.52;0.52;;;25.70;99.90;29.00;100902.00;;;;5019755;28;20218;-66
2023/07/14 14:42:17;;;;;;;0.35;0.35;;;25.60;99.90;29.10;100888.00;;;;5019701;28;20193;-66
2023/07/14 14:45:19;;;;;;;0.25;0.22;;;25.60;99.90;29.30;100884.00;;;;5049461;28;20216;-66
2023/07/14 14:48:25;;;;;;;1.05;0.90;;;25.60;99.90;28.70;100891.00;;;;5026400;28;20260;-66
2023/07/14 14:51:15;;;;;;;0.30;0.30;;;25.40;99.90;28.90;100883.00;;;;5034714;28;20200;-66
2023/07/14 14:53:59;;;;;;;0.15;0.15;;;25.50;99.90;29.00;100868.00;;;;5054356;28;20537;-66
2023/07/14 14:56:45;;;;;;;0.47;0.43;;;25.50;99.90;29.00;100868.00;;;;5035001;28;20175;-67
2023/07/14 14:59:34;;;;;;;0.10;0.10;;;25.60;99.90;29.60;100872.00;;;;5040232;28;20336;-66
2023/07/14 15:02:25;;;;;;;0.70;0.43;;;25.80;99.90;29.60;100852.00;;;;5038035;28;20268;-66
2023/07/14 15:05:21;;;;;;;0.32;0.32;;;26.00;99.90;29.40;100857.00;;;;5028602;28;20191;-66
2023/07/14 15:08:04;;;;;;;0.30;0.30;;;26.00;99.90;30.00;100830.00;;;;5015303;28;20183;-66
2023/07/14 15:10:59;;;;;;;0.60;0.55;;;26.10;99.90;29.50;100821.00;;;;5036351;28;20187;-66
2023/07/14 15:13:57;;;;;;;0.30;0.30;;;25.90;99.90;29.20;100838.00;;;;5044368;28;20214;-66
2023/07/14 15:16:23;;;;;;;0.57;0.57;;;25.80;99.90;28.70;100830.00;;;;5027013;28;20681;-66
2023/07/14 15:18:50;;;;;;;0.20;0.20;;;25.70;99.90;30.00;100815.00;;;;5042418;28;20182;-67
2023/07/14 15:21:21;;;;;;;0.73;0.50;;;26.00;99.90;29.50;100786.00;;;;5052032;28;20182;-67
2023/07/14 15:23:49;;;;;;;0.20;0.20;;;26.00;99.90;29.70;100801.00;;;;5035547;28;20199;-67
2023/07/14 15:26:41;;;;;;;0.10;0.10;;;26.10;99.90;30.20;100784.00;;;;5034241;28;20317;-66
2023/07/14 15:29:31;;;;;;;0.45;0.45;;;26.20;99.90;29.90;100787.00;;;;5034651;28;20186;-69
2023/07/14 15:32:27;;;;;;;0.10;0.10;;;26.30;99.90;30.80;100756.00;;;;5051380;28;20680;-71
2023/07/14 15:35:50;;;;;;;1.08;1.08;;;26.40;99.90;30.60;100763.00;;;;5047882;28;20209;-68
2023/07/14 15:38:23;;;;;;;1.27;1.27;;;26.70;99.90;30.10;100767.00;;;;5041138;28;20179;-71
2023/07/14 15:40:50;;;;;;;0.10;0.10;;;26.50;99.90;31.00;100744.00;;;;5036348;28;20191;-70
2023/07/14 15:43:20;;;;;;;0.10;0.10;;;26.60;99.90;31.40;100731.00;;;;5053796;28;20301;-69
2023/07/14 15:45:53;;;;;;;0.17;0.17;;;26.90;99.90;30.20;100743.00;;;;5043894;28;20631;-69
2023/07/14 15:48:30;;;;;;;0.15;0.15;;;26.80;99.90;30.20;100739.00;;;;5033184;28;20191;-70
2023/07/14 15:50:57;;;;;;;0.43;0.30;;;26.50;99.90;29.30;100757.00;;;;5037710;28;20221;-69
2023/07/14 15:53:27;;;;;;;0.40;0.40;;;26.10;99.90;29.90;100709.00;;;;5039392;28;20245;-69
2023/07/14 15:55:53;;;;;;;0.40;0.40;;;26.00;99.90;30.40;100720.00;;;;5033785;28;20218;-70
2023/07/14 15:58:31;;;;;;;0.65;0.65;;;26.40;99.90;30.20;100715.00;;;;5040315;28;20561;-74
2023/07/14 16:00:59;;;;;;;0.32;0.32;;;26.40;99.90;29.80;100715.00;;;;5037786;28;20202;-69
2023/07/14 16:03:30;;;;;;;0.57;0.57;;;26.20;99.90;30.00;100695.00;;;;5047821;28;20175;-68
2023/07/14 16:05:56;;;;;;;0.20;0.20;;;26.30;99.90;29.80;100698.00;;;;5016921;28;20200;-68
2023/07/14 16:08:33;;;;;;;0.43;0.43;;;26.20;99.90;30.20;100675.00;;;;5034568;28;20183;-68
2023/07/14 16:11:00;;;;;;;0.10;0.10;;;26.20;99.90;30.20;100677.00;;;;5033136;28;20186;-68
2023/07/14 16:13:26;;;;;;;13.07;0.88;;;26.30;99.90;30.60;100661.00;;;;5034202;28;20713;-68
2023/07/14 16:15:59;;;;;;;0.28;0.28;;;26.50;99.90;30.50;100652.00;;;;5052852;28;20181;-67
2023/07/14 16:18:25;;;;;;;0.73;0.73;;;26.50;99.90;30.00;100654.00;;;;5041183;28;20191;-67
2023/07/14 16:20:52;;;;;;;0.10;0.10;;;26.40;99.90;30.00;100653.00;;;;5040059;28;20260;-67
2023/07/14 16:23:28;;;;;;;0.17;0.17;;;26.30;99.90;29.80;100662.00;;;;5041134;28;20187;-68
2023/07/14 16:25:55;;;;;;;0.30;0.30;;;26.20;99.90;29.90;100636.00;;;;5050257;28;20182;-68
2023/07/14 16:28:25;;;;;;;0.30;0.30;;;26.10;99.90;29.50;100649.00;;;;5043326;28;20214;-68
2023/07/14 16:30:50;;;;;;;0.30;0.30;;;26.10;99.90;29.90;100605.00;;;;5041150;28;20214;-68
2023/07/14 16:33:16;;;;;;;0.22;0.22;;;26.00;99.90;29.80;100635.00;;;;5043190;28;20295;-68
2023/07/14 16:35:54;;;;;;;0.10;0.10;;;26.10;99.90;30.20;100641.00;;;;5040763;28;20183;-68
2023/07/14 16:38:36;;;;;;;0.38;0.38;;;26.10;99.90;30.30;100595.00;;;;5032476;28;20643;-68
2023/07/14 16:41:12;;;;;;;0.28;0.28;;;26.40;99.90;30.00;100622.00;;;;5046728;28;20628;-69
2023/07/14 16:43:39;;;;;;;0.30;0.30;;;26.30;99.90;30.20;100636.00;;;;5044873;28;20286;-70
2023/07/14 16:46:05;;;;;;;0.22;0.22;;;26.30;99.90;30.80;100620.00;;;;5045941;28;20182;-70
2023/07/14 16:48:31;;;;;;;1.15;0.63;;;26.60;99.90;30.70;100620.00;;;;5033517;28;20595;-68
2023/07/14 16:50:57;;;;;;;1.48;1.38;;;26.70;99.90;30.50;100622.00;;;;5038800;28;20187;-67
2023/07/14 16:53:24;;;;;;;0.22;0.22;;;26.80;99.90;30.80;100608.00;;;;5036815;28;20210;-68
2023/07/14 16:55:50;;;;;;;1.83;1.73;;;26.70;99.90;30.30;100623.00;;;;5040009;28;20244;-67
2023/07/14 16:58:25;;;;;;;0.50;0.50;;;26.70;99.90;30.90;100607.00;;;;5052829;28;20209;-68
2023/07/14 17:00:55;;;;;;;0.40;0.40;;;26.80;99.90;30.40;100603.00;;;;5023579;28;20225;-67
2023/07/14 17:03:27;;;;;;;0.35;0.35;;;26.80;99.90;30.80;100605.00;;;;5033101;28;20187;-67
2023/07/14 17:06:00;;;;;;;0.30;0.30;;;26.90;99.90;30.90;100600.00;;;;5025838;28;20675;-67
2023/07/14 17:08:29;;;;;;;0.10;0.10;;;27.00;99.90;30.80;100602.00;;;;5028286;28;20282;-67
2023/07/14 17:11:01;;;;;;;3.40;1.13;;;27.20;99.90;30.90;100588.00;;;;5045842;28;20221;-67
2023/07/14 17:13:38;;;;;;;0.30;0.30;;;27.00;99.90;31.20;100578.00;;;;5048746;28;20220;-67
2023/07/14 17:16:12;;;;;;;0.10;0.10;;;27.10;99.90;31.30;100521.00;;;;5039580;28;20240;-67
2023/07/14 17:18:38;;;;;;;1.00;0.57;;;27.30;99.90;30.70;100587.00;;;;5043515;28;20195;-67
2023/07/14 17:21:03;;;;;;;0.20;0.20;;;27.10;99.90;31.10;100576.00;;;;5048897;28;20192;-67
2023/07/14 17:23:38;;;;;;;0.15;0.15;;;27.20;99.90;31.20;100555.00;;;;5050515;28;20200;-67
2023/07/14 17:26:05;;;;;;;0.17;0.17;;;27.30;99.90;31.00;100574.00;;;;5044779;28;20196;-67
2023/07/14 17:28:32;;;;;;;11.98;0.52;;;27.30;99.90;31.00;100541.00;;;;5049377;28;20186;-67
2023/07/14 17:30:58;;;;;;;0.15;0.15;;;27.20;99.90;31.30;100560.00;;;;5046059;28;20332;-67
2023/07/14 17:33:28;;;;;;;0.40;0.32;;;27.30;99.90;30.80;100564.00;;;;5041516;28;20210;-67
2023/07/14 17:35:59;;;;;;;0.55;0.55;;;27.10;99.90;31.40;100558.00;;;;5042088;28;20186;-67
2023/07/14 17:38:35;;;;;;;0.10;0.10;;;27.30;99.90;31.80;100521.00;;;;5037983;28;20194;-67
2023/07/14 17:41:02;;;;;;;0.10;0.10;;;27.30;99.90;31.70;100546.00;;;;5032640;28;20186;-67
2023/07/14 17:43:28;;;;;;;0.30;0.30;;;27.40;99.90;31.70;100554.00;;;;5024956;28;20198;-67
2023/07/14 17:45:54;;;;;;;0.10;0.10;;;27.30;99.90;31.60;100544.00;;;;5043560;28;20198;-68
2023/07/14 17:48:20;;;;;;;0.10;0.10;;;27.40;99.90;32.20;100517.00;;;;5043081;28;20190;-67
2023/07/14 17:51:03;;;;;;;0.20;0.20;;;27.60;99.90;31.60;100535.00;;;;5050056;28;20178;-67
2023/07/14 17:53:32;;;;;;;0.43;0.43;;;27.40;99.90;31.40;100533.00;;;;5043359;28;20218;-67
2023/07/14 17:55:58;;;;;;;0.10;0.10;;;27.30;99.90;31.50;100485.00;;;;5046971;28;20275;-67
2023/07/14 17:58:25;;;;;;;0.10;0.10;;;27.20;99.90;31.40;100516.00;;;;5040733;28;20193;-67
2023/07/14 18:00:52;;;;;;;0.20;0.20;;;27.20;99.90;31.50;100505.00;;;;5039814;28;20183;-67
2023/07/14 18:03:35;;;;;;;0.10;0.10;;;27.30;99.90;31.70;100516.00;;;;5051546;28;20604;-68
2023/07/14 18:06:06;;;;;;;0.10;0.10;;;27.40;99.90;31.70;100506.00;;;;5030494;28;20190;-67
2023/07/14 18:08:35;;;;;;;0.20;0.20;;;27.40;99.90;32.00;100516.00;;;;5036990;28;20191;-65
2023/07/14 18:11:12;;;;;;;0.10;0.10;;;27.40;99.90;31.90;100512.00;;;;5025698;28;20247;-65
2023/07/14 18:13:43;;;;;;;0.90;0.90;;;27.50;99.90;31.50;100501.00;;;;5013787;28;20207;-65
2023/07/14 18:16:34;;;;;;;0.20;0.20;;;27.30;99.90;31.80;100493.00;;;;5018356;28;20190;-65
2023/07/14 18:19:28;;;;;;;0.10;0.10;;;27.30;99.90;30.90;100499.00;;;;5020266;28;20198;-65
2023/07/14 18:22:27;;;;;;;0.10;0.10;;;27.20;99.90;31.00;100494.00;;;;5024640;28;20187;-67
2023/07/14 18:25:01;;;;;;;0.13;0.13;;;27.10;99.90;30.90;100456.00;;;;5037485;28;20183;-68
2023/07/14 18:27:34;;;;;;;0.10;0.10;;;27.10;99.90;31.50;100475.00;;;;5038519;28;20216;-67
2023/07/14 18:30:08;;;;;;;0.20;0.20;;;27.20;99.90;31.50;100470.00;;;;5033453;28;20183;-68
2023/07/14 18:32:39;;;;;;;0.10;0.10;;;27.20;99.90;32.00;100452.00;;;;5033364;28;20564;-67
2023/07/14 18:35:19;;;;;;;0.15;0.15;;;27.20;99.90;31.90;100472.00;;;;5024187;28;20233;-68
2023/07/14 18:37:46;;;;;;;0.10;0.10;;;27.40;99.90;32.30;100449.00;;;;5026783;28;20186;-68
2023/07/14 18:40:35;;;;;;;0.10;0.10;;;27.60;99.90;32.00;100467.00;;;;5047738;28;20186;-68